createdAt,value
2019-05-15T00:00:43.274Z,7.30
2019-05-15T00:03:10.848Z,7.30
2019-05-15T00:05:39.001Z,7.20
2019-05-15T00:08:09.225Z,7.20
2019-05-15T00:10:35.053Z,7.20
2019-05-15T00:13:01.713Z,7.10
2019-05-15T00:15:28.464Z,7.10
2019-05-15T00:17:55.019Z,7.10
2019-05-15T00:20:21.464Z,7.00
2019-05-15T00:22:48.524Z,7.00
2019-05-15T00:25:15.647Z,6.90
2019-05-15T00:27:42.406Z,6.80
2019-05-15T00:30:09.889Z,6.90
2019-05-15T00:32:38.986Z,6.80
2019-05-15T00:35:06.295Z,6.80
2019-05-15T00:37:33.399Z,6.80
2019-05-15T00:39:59.972Z,6.80
2019-05-15T00:42:28.431Z,6.80
2019-05-15T00:44:55.185Z,6.80
2019-05-15T00:47:21.816Z,6.70
2019-05-15T00:49:48.922Z,6.60
2019-05-15T00:52:17.914Z,6.60
2019-05-15T00:54:44.234Z,6.60
2019-05-15T00:57:10.770Z,6.60
2019-05-15T00:59:38.984Z,6.50
2019-05-15T01:02:08.537Z,6.60
2019-05-15T01:04:34.903Z,6.50
2019-05-15T01:07:01.422Z,6.50
2019-05-15T01:09:29.223Z,6.50
2019-05-15T01:11:56.086Z,6.40
2019-05-15T01:14:22.504Z,6.40
2019-05-15T01:16:49.162Z,6.50
2019-05-15T01:19:18.381Z,6.50
2019-05-15T01:21:44.930Z,6.50
2019-05-15T01:24:12.215Z,6.40
2019-05-15T01:26:38.683Z,6.40
2019-05-15T01:29:05.184Z,6.40
2019-05-15T01:31:32.306Z,6.40
2019-05-15T01:33:58.729Z,6.30
2019-05-15T01:36:25.254Z,6.30
2019-05-15T01:38:52.236Z,6.40
2019-05-15T01:41:19.045Z,6.30
2019-05-15T01:43:45.774Z,6.30
2019-05-15T01:46:12.486Z,6.30
2019-05-15T01:48:39.059Z,6.30
2019-05-15T01:51:05.728Z,6.30
2019-05-15T01:53:32.305Z,6.30
2019-05-15T01:55:59.063Z,6.30
2019-05-15T01:58:25.676Z,6.30
2019-05-15T02:00:52.345Z,6.30
2019-05-15T02:03:18.872Z,6.30
2019-05-15T02:05:47.910Z,6.30
2019-05-15T02:08:14.125Z,6.30
2019-05-15T02:10:40.814Z,6.30
2019-05-15T02:13:08.533Z,6.30
2019-05-15T02:15:36.064Z,6.30
2019-05-15T02:18:02.692Z,6.30
2019-05-15T02:20:29.440Z,6.30
2019-05-15T02:22:56.048Z,6.30
2019-05-15T02:25:22.675Z,6.40
2019-05-15T02:27:49.368Z,6.40
2019-05-15T02:30:27.860Z,6.30
2019-05-15T02:32:44.813Z,6.30
2019-05-15T02:35:12.288Z,6.30
2019-05-15T02:37:40.860Z,6.30
2019-05-15T02:40:09.935Z,6.30
2019-05-15T02:42:39.528Z,6.30
2019-05-15T02:45:05.752Z,6.30
2019-05-15T02:47:32.452Z,6.30
2019-05-15T02:49:59.453Z,6.20
2019-05-15T02:52:29.265Z,6.20
2019-05-15T02:54:54.902Z,6.20
2019-05-15T02:57:21.471Z,6.20
2019-05-15T02:59:49.806Z,6.20
2019-05-15T03:02:18.997Z,6.20
2019-05-15T03:04:44.970Z,6.20
2019-05-15T03:07:11.612Z,6.20
2019-05-15T03:09:39.989Z,6.20
2019-05-15T03:12:09.079Z,6.30
2019-05-15T03:14:35.235Z,6.30
2019-05-15T03:17:01.893Z,6.30
2019-05-15T03:19:29.950Z,6.30
2019-05-15T03:21:59.870Z,6.30
2019-05-15T03:24:28.647Z,6.30
2019-05-15T03:26:53.881Z,6.40
2019-05-15T03:29:21.188Z,6.40
2019-05-15T03:32:05.321Z,6.40
2019-05-15T03:34:23.357Z,6.40
2019-05-15T03:36:46.101Z,6.50
2019-05-15T03:39:13.782Z,6.40
2019-05-15T03:41:40.379Z,6.40
2019-05-15T03:44:09.451Z,6.50
2019-05-15T03:46:35.483Z,6.50
2019-05-15T03:49:02.101Z,6.50
2019-05-15T03:51:29.248Z,6.50
2019-05-15T03:53:56.312Z,6.50
2019-05-15T03:56:22.923Z,6.50
2019-05-15T03:58:49.617Z,6.50
2019-05-15T04:01:32.519Z,6.50
2019-05-15T04:03:44.679Z,6.50
2019-05-15T04:06:11.477Z,6.50
2019-05-15T04:08:39.130Z,6.50
2019-05-15T04:11:09.163Z,6.60
2019-05-15T04:13:35.036Z,6.60
2019-05-15T04:16:02.024Z,6.60
2019-05-15T04:18:29.161Z,6.70
2019-05-15T04:20:59.831Z,6.70
2019-05-15T04:23:24.661Z,6.70
2019-05-15T04:25:51.381Z,6.70
2019-05-15T04:28:20.692Z,6.70
2019-05-15T04:30:49.477Z,6.80
2019-05-15T04:33:19.717Z,6.90
2019-05-15T04:35:44.945Z,6.80
2019-05-15T04:38:11.551Z,7.00
2019-05-15T04:40:39.629Z,7.00
2019-05-15T04:43:09.970Z,7.00
2019-05-15T04:45:35.592Z,7.00
2019-05-15T04:48:03.009Z,7.00
2019-05-15T04:50:29.744Z,7.10
2019-05-15T04:52:59.013Z,7.10
2019-05-15T04:55:24.743Z,7.10
2019-05-15T04:57:51.374Z,7.10
2019-05-15T05:00:49.711Z,7.30
2019-05-15T05:03:19.355Z,7.20
2019-05-15T05:05:44.435Z,7.30
2019-05-15T05:08:12.687Z,7.30
2019-05-15T05:10:39.680Z,7.30
2019-05-15T05:13:08.705Z,7.30
2019-05-15T05:15:35.387Z,7.40
2019-05-15T05:18:18.854Z,7.40
2019-05-15T05:20:45.713Z,7.50
2019-05-15T05:23:12.442Z,7.50
2019-05-15T05:25:39.179Z,7.50
2019-05-15T05:28:05.764Z,7.50
2019-05-15T05:30:32.953Z,7.50
2019-05-15T05:32:59.598Z,7.50
2019-05-15T05:35:27.915Z,7.50
2019-05-15T05:37:54.686Z,7.60
2019-05-15T05:40:21.308Z,7.50
2019-05-15T05:42:48.397Z,7.60
2019-05-15T05:45:15.233Z,7.60
2019-05-15T05:47:41.649Z,7.70
2019-05-15T05:50:08.801Z,7.60
2019-05-15T05:52:35.425Z,7.70
2019-05-15T05:55:04.047Z,7.70
2019-05-15T05:57:30.700Z,7.70
2019-05-15T05:59:58.322Z,7.70
2019-05-15T06:02:24.919Z,7.80
2019-05-15T06:04:51.546Z,7.80
2019-05-15T06:07:18.510Z,7.80
2019-05-15T06:09:48.486Z,7.80
2019-05-15T06:12:13.967Z,7.90
2019-05-15T06:14:40.740Z,8.00
2019-05-15T06:17:08.347Z,8.00
2019-05-15T06:19:35.221Z,8.00
2019-05-15T06:22:01.728Z,8.00
2019-05-15T06:24:30.574Z,8.00
2019-05-15T06:26:58.688Z,8.00
2019-05-15T06:29:28.220Z,8.10
2019-05-15T06:31:53.638Z,8.10
2019-05-15T06:34:20.043Z,8.10
2019-05-15T06:36:48.558Z,8.10
2019-05-15T06:39:15.272Z,8.10
2019-05-15T06:41:42.932Z,8.10
2019-05-15T06:44:09.500Z,8.10
2019-05-15T06:46:39.060Z,8.20
2019-05-15T06:49:04.834Z,8.20
2019-05-15T06:51:31.758Z,8.20
2019-05-15T06:53:58.684Z,8.30
2019-05-15T06:56:25.230Z,8.30
2019-05-15T06:58:51.909Z,8.30
2019-05-15T07:01:18.965Z,8.40
2019-05-15T07:03:48.265Z,8.30
2019-05-15T07:06:15.142Z,8.40
2019-05-15T07:08:43.616Z,8.40
2019-05-15T07:11:11.381Z,8.50
2019-05-15T07:13:39.715Z,8.50
2019-05-15T07:16:08.116Z,8.60
2019-05-15T07:18:35.662Z,8.60
2019-05-15T07:21:02.433Z,8.60
2019-05-15T07:23:30.804Z,8.60
2019-05-15T07:25:58.719Z,8.70
2019-05-15T07:28:25.811Z,8.80
2019-05-15T07:30:52.585Z,8.80
2019-05-15T07:33:34.240Z,8.80
2019-05-15T07:35:49.253Z,8.80
2019-05-15T07:38:19.207Z,8.90
2019-05-15T07:40:51.728Z,8.90
2019-05-15T07:43:15.171Z,8.90
2019-05-15T07:45:44.251Z,9.10
2019-05-15T07:48:10.303Z,9.00
2019-05-15T07:50:38.795Z,9.10
2019-05-15T07:53:05.472Z,9.20
2019-05-15T07:55:32.135Z,9.20
2019-05-15T07:57:59.236Z,9.30
2019-05-15T08:00:28.853Z,9.40
2019-05-15T08:02:58.479Z,9.40
2019-05-15T08:05:28.540Z,9.40
2019-05-15T08:07:58.078Z,9.50
2019-05-15T08:10:25.040Z,9.60
2019-05-15T08:15:38.127Z,9.70
2019-05-15T08:18:09.899Z,9.90
2019-05-15T08:20:33.789Z,9.70
2019-05-15T08:23:00.579Z,9.70
2019-05-15T08:25:34.689Z,9.80
2019-05-15T08:27:58.812Z,9.90
2019-05-15T08:30:32.314Z,9.80
2019-05-15T08:32:59.274Z,9.80
2019-05-15T08:35:29.137Z,9.70
2019-05-15T08:37:58.092Z,9.80
2019-05-15T08:40:24.792Z,9.80
2019-05-15T08:42:56.807Z,9.80
2019-05-15T08:45:20.228Z,9.80
2019-05-15T08:47:49.817Z,9.80
2019-05-15T08:50:18.275Z,9.90
2019-05-15T08:52:45.538Z,9.90
2019-05-15T08:55:12.716Z,9.90
2019-05-15T08:57:39.247Z,9.90
2019-05-15T09:00:09.687Z,9.80
2019-05-15T09:02:38.106Z,9.80
2019-05-15T09:05:08.613Z,9.80
2019-05-15T09:07:38.320Z,9.80
2019-05-15T09:10:09.017Z,9.90
2019-05-15T09:12:38.781Z,9.90
2019-05-15T09:15:07.868Z,10.00
2019-05-15T09:17:34.534Z,10.10
2019-05-15T09:20:01.444Z,10.10
2019-05-15T09:22:29.185Z,10.10
2019-05-15T09:24:58.983Z,10.10
2019-05-15T09:27:27.765Z,10.20
2019-05-15T09:29:59.102Z,10.20
2019-05-15T09:32:28.518Z,10.20
2019-05-15T09:34:59.553Z,10.20
2019-05-15T09:37:28.558Z,10.30
2019-05-15T09:39:55.005Z,10.20
2019-05-15T09:42:22.287Z,10.10
2019-05-15T09:44:51.571Z,10.30
2019-05-15T09:47:21.845Z,10.40
2019-05-15T09:49:58.879Z,10.40
2019-05-15T09:52:30.298Z,10.50
2019-05-15T09:54:59.313Z,10.70
2019-05-15T09:57:30.469Z,10.80
2019-05-15T09:59:59.724Z,11.00
2019-05-15T10:02:28.416Z,10.90
2019-05-15T10:05:06.510Z,11.10
2019-05-15T10:07:30.588Z,11.00
2019-05-15T10:10:02.243Z,11.00
2019-05-15T10:12:34.502Z,10.80
2019-05-15T10:14:59.223Z,10.90
2019-05-15T10:17:42.158Z,11.00
2019-05-15T10:20:13.389Z,11.00
2019-05-15T10:25:39.863Z,11.20
2019-05-15T10:28:09.712Z,11.10
2019-05-15T10:30:36.034Z,11.20
2019-05-15T10:33:03.011Z,11.40
2019-05-15T10:35:31.781Z,11.50
2019-05-15T10:37:59.229Z,11.50
2019-05-15T10:40:28.693Z,11.40
2019-05-15T10:42:55.165Z,11.40
2019-05-15T10:45:21.994Z,11.50
2019-05-15T10:47:49.747Z,11.50
2019-05-15T10:50:19.040Z,11.70
2019-05-15T10:52:52.385Z,11.80
2019-05-15T10:55:19.121Z,11.80
2019-05-15T10:57:46.080Z,11.80
2019-05-15T11:00:14.888Z,11.80
2019-05-15T11:02:45.077Z,12.00
2019-05-15T11:05:41.031Z,12.00
2019-05-15T11:07:58.858Z,12.00
2019-05-15T11:10:25.592Z,11.90
2019-05-15T11:12:52.690Z,11.90
2019-05-15T11:15:19.497Z,11.90
2019-05-15T11:17:49.164Z,11.90
2019-05-15T11:20:18.842Z,12.00
2019-05-15T11:22:45.993Z,12.00
2019-05-15T11:25:16.481Z,12.10
2019-05-15T11:27:43.559Z,12.20
2019-05-15T11:30:10.545Z,12.20
2019-05-15T11:32:43.399Z,12.10
2019-05-15T11:35:13.107Z,12.20
2019-05-15T11:37:45.767Z,12.10
2019-05-15T11:40:10.362Z,12.00
2019-05-15T11:42:40.250Z,12.10
2019-05-15T11:45:08.292Z,12.10
2019-05-15T11:47:40.265Z,12.20
2019-05-15T11:50:14.007Z,12.30
2019-05-15T11:52:50.054Z,12.30
2019-05-15T11:55:18.996Z,12.30
2019-05-15T11:57:51.133Z,12.40
2019-05-15T12:00:25.947Z,12.40
2019-05-15T12:02:46.079Z,12.50
2019-05-15T12:05:13.597Z,12.60
2019-05-15T12:07:41.680Z,12.80
2019-05-15T12:10:10.794Z,12.90
2019-05-15T12:12:38.612Z,13.00
2019-05-15T12:15:06.258Z,13.20
2019-05-15T12:17:48.308Z,13.30
2019-05-15T12:20:19.069Z,13.20
2019-05-15T12:22:44.214Z,13.40
2019-05-15T12:25:11.741Z,13.50
2019-05-15T12:27:40.693Z,13.40
2019-05-15T12:30:11.937Z,13.30
2019-05-15T12:32:40.442Z,13.40
2019-05-15T12:35:09.507Z,13.50
2019-05-15T12:37:41.655Z,13.40
2019-05-15T13:00:18.155Z,13.40
2019-05-15T13:02:44.654Z,13.50
2019-05-15T13:05:19.029Z,13.80
2019-05-15T13:07:45.500Z,13.90
2019-05-15T13:10:15.018Z,14.00
2019-05-15T13:12:55.653Z,13.90
2019-05-15T13:15:15.322Z,14.00
2019-05-15T13:17:45.634Z,14.00
2019-05-15T13:20:12.646Z,14.00
2019-05-15T13:22:39.552Z,14.00
2019-05-15T13:25:11.122Z,14.10
2019-05-15T13:27:38.537Z,14.00
2019-05-15T13:30:09.799Z,13.90
2019-05-15T13:32:40.626Z,13.90
2019-05-15T13:35:06.227Z,14.10
2019-05-15T13:37:32.952Z,14.40
2019-05-15T13:40:04.476Z,14.50
2019-05-15T13:42:31.314Z,14.70
2019-05-15T13:44:59.177Z,14.60
2019-05-15T13:47:28.430Z,14.40
2019-05-15T13:49:54.962Z,14.20
2019-05-15T13:52:23.218Z,14.30
2019-05-15T13:54:49.579Z,14.90
2019-05-15T13:57:18.061Z,15.00
2019-05-15T13:59:49.367Z,14.60
2019-05-15T14:02:13.742Z,14.10
2019-05-15T14:04:40.997Z,13.80
2019-05-15T14:07:08.547Z,13.50
2019-05-15T14:09:43.366Z,13.30
2019-05-15T14:12:04.788Z,13.20
2019-05-15T14:14:31.671Z,13.10
2019-05-15T14:17:00.543Z,13.00
2019-05-15T14:19:28.058Z,12.90
2019-05-15T14:21:55.003Z,12.90
2019-05-15T14:24:22.216Z,12.90
2019-05-15T14:26:49.018Z,12.80
2019-05-15T14:29:18.998Z,12.80
2019-05-15T14:31:49.407Z,12.70
2019-05-15T14:34:18.451Z,12.70
2019-05-15T14:36:45.534Z,12.90
2019-05-15T14:39:12.124Z,12.90
2019-05-15T14:41:38.595Z,12.80
2019-05-15T14:44:14.527Z,12.90
2019-05-15T14:46:34.303Z,12.70
2019-05-15T14:49:01.186Z,12.50
2019-05-15T14:51:28.520Z,12.50
2019-05-15T14:53:55.463Z,12.30
2019-05-15T14:56:23.427Z,12.30
2019-05-15T14:58:58.447Z,12.30
2019-05-15T15:01:24.782Z,12.20
2019-05-15T15:03:51.652Z,12.10
2019-05-15T15:06:20.282Z,11.90
2019-05-15T15:08:48.728Z,11.70
2019-05-15T15:11:17.809Z,11.50
2019-05-15T15:13:44.227Z,11.30
2019-05-15T15:16:13.931Z,11.20
2019-05-15T15:18:40.706Z,11.00
2019-05-15T15:21:08.585Z,11.10
2019-05-15T15:23:38.581Z,10.90
2019-05-15T15:26:04.950Z,10.60
2019-05-15T15:28:31.743Z,10.60
2019-05-15T15:31:00.559Z,10.60
2019-05-15T15:33:28.893Z,10.40
2019-05-15T15:36:00.116Z,10.30
2019-05-15T15:38:40.164Z,10.30
2019-05-15T15:41:00.087Z,10.20
2019-05-15T15:43:28.757Z,10.10
2019-05-15T15:45:54.024Z,9.90
2019-05-15T15:48:21.208Z,9.80
2019-05-15T15:50:48.831Z,9.80
2019-05-15T15:53:16.124Z,9.80
2019-05-15T15:55:43.509Z,9.80
2019-05-15T15:58:10.520Z,9.80
2019-05-15T16:00:40.739Z,9.60
2019-05-15T16:03:08.471Z,9.50
2019-05-15T16:05:38.196Z,9.50
2019-05-15T16:08:08.511Z,9.40
2019-05-15T16:10:33.374Z,9.20
2019-05-15T16:13:01.006Z,9.10
2019-05-15T16:15:29.149Z,9.00
2019-05-15T16:17:55.958Z,8.90
2019-05-15T16:20:22.734Z,8.80
2019-05-15T16:22:49.360Z,8.70
2019-05-15T16:25:18.418Z,8.70
2019-05-15T16:27:49.286Z,8.70
2019-05-15T16:30:20.813Z,8.70
2019-05-15T16:32:48.218Z,8.70
2019-05-15T16:35:18.444Z,8.60
2019-05-15T16:37:45.277Z,8.60
2019-05-15T16:40:12.926Z,8.60
2019-05-15T16:42:39.676Z,8.50
2019-05-15T16:45:09.326Z,8.40
2019-05-15T16:47:38.590Z,8.40
2019-05-15T16:50:05.682Z,8.30
2019-05-15T16:52:35.223Z,8.30
2019-05-15T16:55:03.862Z,8.30
2019-05-15T16:57:32.026Z,8.20
2019-05-15T16:59:58.773Z,8.20
2019-05-15T17:02:28.124Z,8.30
2019-05-15T17:04:54.091Z,8.30
2019-05-15T17:07:25.125Z,8.30
2019-05-15T17:09:52.309Z,8.20
2019-05-15T17:12:19.152Z,8.20
2019-05-15T17:14:48.564Z,8.30
2019-05-15T17:17:15.260Z,8.30
2019-05-15T17:19:44.299Z,8.30
2019-05-15T17:22:11.066Z,8.20
2019-05-15T17:24:38.690Z,8.20
2019-05-15T17:27:08.268Z,8.20
2019-05-15T17:29:34.610Z,8.20
2019-05-15T17:32:01.224Z,8.10
2019-05-15T17:34:31.629Z,8.10
2019-05-15T17:36:58.466Z,8.20
2019-05-15T17:39:34.677Z,8.20
2019-05-15T17:41:54.007Z,8.20
2019-05-15T17:44:21.272Z,8.20
2019-05-15T17:46:48.931Z,8.20
2019-05-15T17:49:16.279Z,8.10
2019-05-15T17:51:42.903Z,8.10
2019-05-15T17:54:09.464Z,8.10
2019-05-15T17:56:36.120Z,8.10
2019-05-15T17:59:02.728Z,8.10
2019-05-15T18:01:29.459Z,8.10
2019-05-15T18:03:59.117Z,8.10
2019-05-15T18:06:25.279Z,8.10
2019-05-15T18:08:51.902Z,8.10
2019-05-15T18:11:18.787Z,8.10
2019-05-15T18:13:45.661Z,8.10
2019-05-15T18:16:13.744Z,8.10
2019-05-15T18:18:40.818Z,8.20
2019-05-15T18:21:08.811Z,8.10
2019-05-15T18:23:36.027Z,8.10
2019-05-15T18:26:04.937Z,8.20
2019-05-15T18:28:31.452Z,8.20
2019-05-15T18:30:58.781Z,8.20
2019-05-15T18:33:27.866Z,8.20
2019-05-15T18:35:53.969Z,8.20
2019-05-15T18:38:20.705Z,8.10
2019-05-15T18:40:48.780Z,8.20
2019-05-15T18:43:15.526Z,8.20
2019-05-15T18:45:42.102Z,8.10
2019-05-15T18:48:08.754Z,8.20
2019-05-15T18:50:37.648Z,8.20
2019-05-15T18:53:03.960Z,8.10
2019-05-15T18:55:31.042Z,8.10
2019-05-15T18:57:58.425Z,8.20
2019-05-15T19:00:25.445Z,8.20
2019-05-15T19:02:52.381Z,8.20
2019-05-15T19:05:21.113Z,8.20
2019-05-15T19:07:48.677Z,8.20
2019-05-15T19:10:18.646Z,8.20
2019-05-15T19:12:52.349Z,8.20
2019-05-15T19:15:19.323Z,8.30
2019-05-15T19:17:47.713Z,8.20
2019-05-15T19:20:15.311Z,8.20
2019-05-15T19:22:42.412Z,8.30
2019-05-15T19:25:09.192Z,8.30
2019-05-15T19:27:35.959Z,8.30
2019-05-15T19:30:05.080Z,8.30
2019-05-15T19:32:31.748Z,8.40
2019-05-15T19:34:58.901Z,8.40
2019-05-15T19:37:28.398Z,8.40
2019-05-15T19:39:54.823Z,8.50
2019-05-15T19:42:21.595Z,8.50
2019-05-15T19:44:48.540Z,8.50
2019-05-15T19:47:15.455Z,8.60
2019-05-15T19:49:42.117Z,8.60
2019-05-15T19:52:09.734Z,8.60
2019-05-15T19:54:37.816Z,8.60
2019-05-15T19:57:04.856Z,8.60
2019-05-15T19:59:31.532Z,8.60
2019-05-15T20:01:58.505Z,8.70
2019-05-15T20:04:27.820Z,8.70
2019-05-15T20:07:05.481Z,8.70
2019-05-15T20:09:32.344Z,8.70
2019-05-15T20:11:58.986Z,8.80
2019-05-15T20:14:26.059Z,8.80
2019-05-15T20:16:53.050Z,8.90
2019-05-15T20:19:20.130Z,8.80
2019-05-15T20:21:51.293Z,8.80
2019-05-15T20:24:18.341Z,8.80
2019-05-15T20:26:50.096Z,8.90
2019-05-15T20:29:21.491Z,8.80
2019-05-15T20:31:51.107Z,8.90
2019-05-15T20:34:23.342Z,9.00
2019-05-15T20:36:50.031Z,8.90
2019-05-15T20:39:16.809Z,9.00
2019-05-15T20:41:43.698Z,9.00
2019-05-15T20:44:11.594Z,9.00
2019-05-15T20:46:50.997Z,9.00
2019-05-15T20:49:22.416Z,9.00
2019-05-15T20:51:51.140Z,9.00
2019-05-15T20:54:20.281Z,9.00
2019-05-15T20:56:48.993Z,9.10
2019-05-15T20:59:18.071Z,9.20
2019-05-15T21:01:48.239Z,9.20
2019-05-15T21:04:23.738Z,9.20
2019-05-15T21:06:51.947Z,9.20
2019-05-15T21:09:18.716Z,9.20
2019-05-15T21:11:45.537Z,9.10
2019-05-15T21:14:12.694Z,9.20
2019-05-15T21:16:45.153Z,9.20
2019-05-15T21:19:11.841Z,9.30
2019-05-15T21:21:51.328Z,9.20
2019-05-15T21:24:18.323Z,9.20
2019-05-15T21:26:48.913Z,9.30
2019-05-15T21:29:18.649Z,9.30
2019-05-15T21:31:49.065Z,9.30
2019-05-15T21:34:16.225Z,9.30
2019-05-15T21:36:48.363Z,9.30
2019-05-15T21:39:17.586Z,9.30
2019-05-15T21:41:54.701Z,9.30
2019-05-15T21:44:21.606Z,9.30
2019-05-15T21:46:50.110Z,9.30
2019-05-15T21:49:18.986Z,9.40
2019-05-15T21:51:48.888Z,9.30
2019-05-15T21:54:17.979Z,9.40
2019-05-15T21:56:50.511Z,9.40
2019-05-15T21:59:18.823Z,9.50
2019-05-15T22:01:48.333Z,9.50
2019-05-15T22:04:15.126Z,9.50
2019-05-15T22:06:41.816Z,9.60
2019-05-15T22:09:10.812Z,9.60
2019-05-15T22:11:39.555Z,9.60
2019-05-15T22:14:08.163Z,9.60
2019-05-15T22:16:35.558Z,9.60
2019-05-15T22:19:03.290Z,9.60
2019-05-15T22:21:31.013Z,9.60
2019-05-15T22:23:59.841Z,9.60
2019-05-15T22:26:29.074Z,9.70
2019-05-15T22:28:58.369Z,9.70
2019-05-15T22:31:25.360Z,9.80
2019-05-15T22:33:51.902Z,9.80
2019-05-15T22:36:18.954Z,9.80
2019-05-15T22:38:48.310Z,9.90
2019-05-15T22:41:15.088Z,9.80
2019-05-15T22:43:41.860Z,9.80
2019-05-15T22:46:10.938Z,9.80
2019-05-15T22:48:38.039Z,9.90
2019-05-15T22:51:05.183Z,9.90
2019-05-15T22:53:32.305Z,9.90
2019-05-15T22:55:59.194Z,9.90
2019-05-15T22:58:28.049Z,9.90
2019-05-15T23:00:54.412Z,10.00
2019-05-15T23:03:24.073Z,10.00
2019-05-15T23:05:50.830Z,9.90
2019-05-15T23:08:18.413Z,9.90
2019-05-15T23:10:45.252Z,10.00
2019-05-15T23:13:12.349Z,10.00
2019-05-15T23:15:40.934Z,10.00
2019-05-15T23:18:08.596Z,10.00
2019-05-15T23:20:35.524Z,10.00
2019-05-15T23:23:02.237Z,10.10
2019-05-15T23:25:29.148Z,10.10
2019-05-15T23:27:58.131Z,10.10
2019-05-15T23:30:25.609Z,10.10
2019-05-15T23:32:52.541Z,10.10
2019-05-15T23:35:19.509Z,10.10
2019-05-15T23:37:58.471Z,10.10
2019-05-15T23:40:22.862Z,10.10
2019-05-15T23:42:49.604Z,10.10
2019-05-15T23:45:18.250Z,10.20
2019-05-15T23:47:50.197Z,10.20
2019-05-15T23:50:19.478Z,10.20
2019-05-15T23:52:48.797Z,10.20
2019-05-15T23:55:15.670Z,10.20
2019-05-15T23:57:42.282Z,10.30
